sensor_id;sensor_type;location;lat;lon;timestamp;temperature;humidity
52016;DHT22;38032;53.326;6.472;2024-03-23T00:56:04;7.10;99.90
52016;DHT22;38032;53.326;6.472;2024-03-23T00:58:30;7.00;99.90
52016;DHT22;38032;53.326;6.472;2024-03-23T01:00:56;7.00;99.90
52016;DHT22;38032;53.326;6.472;2024-03-23T01:03:22;6.90;99.90
52016;DHT22;38032;53.326;6.472;2024-03-23T01:05:48;6.90;99.90
52016;DHT22;38032;53.326;6.472;2024-03-23T01:08:14;6.80;99.90
52016;DHT22;38032;53.326;6.472;2024-03-23T01:10:40;6.80;99.90
52016;DHT22;38032;53.326;6.472;2024-03-23T01:13:06;6.80;99.90
52016;DHT22;38032;53.326;6.472;2024-03-23T01:15:32;6.80;99.90
52016;DHT22;38032;53.326;6.472;2024-03-23T01:17:58;6.80;99.90
52016;DHT22;38032;53.326;6.472;2024-03-23T01:20:24;6.70;99.90
52016;DHT22;38032;53.326;6.472;2024-03-23T01:22:50;6.70;99.90
52016;DHT22;38032;53.326;6.472;2024-03-23T01:25:15;6.70;99.90
52016;DHT22;38032;53.326;6.472;2024-03-23T01:27:41;6.60;99.90
52016;DHT22;38032;53.326;6.472;2024-03-23T01:30:07;6.60;99.90
52016;DHT22;38032;53.326;6.472;2024-03-23T01:32:33;6.50;99.90
52016;DHT22;38032;53.326;6.472;2024-03-23T01:34:59;6.50;99.90
52016;DHT22;38032;53.326;6.472;2024-03-23T01:37:25;6.50;99.90
52016;DHT22;38032;53.326;6.472;2024-03-23T01:39:51;6.50;99.90
52016;DHT22;38032;53.326;6.472;2024-03-23T01:42:17;6.40;99.90
52016;DHT22;38032;53.326;6.472;2024-03-23T01:44:43;6.50;99.90
52016;DHT22;38032;53.326;6.472;2024-03-23T01:47:08;6.40;99.90
52016;DHT22;38032;53.326;6.472;2024-03-23T01:49:35;6.40;99.90
52016;DHT22;38032;53.326;6.472;2024-03-23T01:52:02;6.40;99.90
52016;DHT22;38032;53.326;6.472;2024-03-23T01:54:29;6.40;99.90
52016;DHT22;38032;53.326;6.472;2024-03-23T01:56:56;6.30;99.90
52016;DHT22;38032;53.326;6.472;2024-03-23T01:59:22;6.30;99.90
52016;DHT22;38032;53.326;6.472;2024-03-23T02:01:49;6.40;99.90
52016;DHT22;38032;53.326;6.472;2024-03-23T02:04:14;6.30;99.90
52016;DHT22;38032;53.326;6.472;2024-03-23T02:06:40;6.30;99.90
52016;DHT22;38032;53.326;6.472;2024-03-23T02:09:06;6.30;99.90
52016;DHT22;38032;53.326;6.472;2024-03-23T02:11:32;6.30;99.90
52016;DHT22;38032;53.326;6.472;2024-03-23T02:13:58;6.30;99.90
52016;DHT22;38032;53.326;6.472;2024-03-23T02:16:23;6.30;99.90
52016;DHT22;38032;53.326;6.472;2024-03-23T02:18:49;6.20;99.90
52016;DHT22;38032;53.326;6.472;2024-03-23T02:21:15;6.20;99.90
52016;DHT22;38032;53.326;6.472;2024-03-23T02:23:41;6.10;99.90
52016;DHT22;38032;53.326;6.472;2024-03-23T02:26:07;6.10;99.90
52016;DHT22;38032;53.326;6.472;2024-03-23T02:28:33;6.10;99.90
52016;DHT22;38032;53.326;6.472;2024-03-23T02:30:59;6.10;99.90
52016;DHT22;38032;53.326;6.472;2024-03-23T02:33:26;6.00;99.90
52016;DHT22;38032;53.326;6.472;2024-03-23T02:35:56;6.00;99.90
52016;DHT22;38032;53.326;6.472;2024-03-23T02:38:23;6.00;99.90
52016;DHT22;38032;53.326;6.472;2024-03-23T02:40:49;6.00;99.90
52016;DHT22;38032;53.326;6.472;2024-03-23T02:43:14;6.00;99.90
52016;DHT22;38032;53.326;6.472;2024-03-23T02:45:40;5.90;99.90
52016;DHT22;38032;53.326;6.472;2024-03-23T02:48:06;5.90;99.90
52016;DHT22;38032;53.326;6.472;2024-03-23T02:50:32;5.90;99.90
52016;DHT22;38032;53.326;6.472;2024-03-23T02:52:59;5.80;99.90
52016;DHT22;38032;53.326;6.472;2024-03-23T02:55:25;5.80;99.90
52016;DHT22;38032;53.326;6.472;2024-03-23T02:57:50;5.80;99.90
52016;DHT22;38032;53.326;6.472;2024-03-23T03:00:16;5.80;99.90
52016;DHT22;38032;53.326;6.472;2024-03-23T03:02:42;5.80;99.90
52016;DHT22;38032;53.326;6.472;2024-03-23T03:05:08;5.80;99.90
52016;DHT22;38032;53.326;6.472;2024-03-23T03:07:34;5.80;99.90
52016;DHT22;38032;53.326;6.472;2024-03-23T03:10:00;5.80;99.90
52016;DHT22;38032;53.326;6.472;2024-03-23T03:12:26;5.80;99.90
52016;DHT22;38032;53.326;6.472;2024-03-23T03:14:52;5.80;99.90
52016;DHT22;38032;53.326;6.472;2024-03-23T03:17:18;5.80;99.90
52016;DHT22;38032;53.326;6.472;2024-03-23T03:19:44;5.80;99.90
52016;DHT22;38032;53.326;6.472;2024-03-23T03:22:11;5.80;99.90
52016;DHT22;38032;53.326;6.472;2024-03-23T03:24:37;5.80;99.90
52016;DHT22;38032;53.326;6.472;2024-03-23T03:27:02;5.80;99.90
52016;DHT22;38032;53.326;6.472;2024-03-23T03:29:29;5.80;99.90
52016;DHT22;38032;53.326;6.472;2024-03-23T03:32:02;5.80;99.90
52016;DHT22;38032;53.326;6.472;2024-03-23T03:34:27;5.70;99.90
52016;DHT22;38032;53.326;6.472;2024-03-23T03:36:54;5.70;99.90
52016;DHT22;38032;53.326;6.472;2024-03-23T03:39:20;5.70;99.90
52016;DHT22;38032;53.326;6.472;2024-03-23T03:41:46;5.70;99.90
52016;DHT22;38032;53.326;6.472;2024-03-23T03:44:12;5.60;99.90
52016;DHT22;38032;53.326;6.472;2024-03-23T03:46:37;5.60;99.90
52016;DHT22;38032;53.326;6.472;2024-03-23T03:49:03;5.60;99.90
52016;DHT22;38032;53.326;6.472;2024-03-23T03:51:29;5.50;99.90
52016;DHT22;38032;53.326;6.472;2024-03-23T03:53:55;5.50;99.90
52016;DHT22;38032;53.326;6.472;2024-03-23T03:56:21;5.50;99.90
52016;DHT22;38032;53.326;6.472;2024-03-23T03:58:48;5.50;99.90
52016;DHT22;38032;53.326;6.472;2024-03-23T04:01:14;5.50;99.90
52016;DHT22;38032;53.326;6.472;2024-03-23T04:03:40;5.50;99.90
52016;DHT22;38032;53.326;6.472;2024-03-23T04:06:09;5.40;99.90
52016;DHT22;38032;53.326;6.472;2024-03-23T04:08:35;5.40;99.90
52016;DHT22;38032;53.326;6.472;2024-03-23T04:11:02;5.40;99.90
52016;DHT22;38032;53.326;6.472;2024-03-23T04:13:27;5.40;99.90
52016;DHT22;38032;53.326;6.472;2024-03-23T04:15:55;5.30;99.90
52016;DHT22;38032;53.326;6.472;2024-03-23T04:18:21;5.30;99.90
52016;DHT22;38032;53.326;6.472;2024-03-23T04:20:48;5.30;99.90
52016;DHT22;38032;53.326;6.472;2024-03-23T04:23:14;5.30;99.90
52016;DHT22;38032;53.326;6.472;2024-03-23T04:25:40;5.30;99.90
52016;DHT22;38032;53.326;6.472;2024-03-23T04:28:06;5.30;99.90
52016;DHT22;38032;53.326;6.472;2024-03-23T04:30:32;5.30;99.90
52016;DHT22;38032;53.326;6.472;2024-03-23T04:32:58;5.20;99.90
52016;DHT22;38032;53.326;6.472;2024-03-23T04:35:25;5.20;99.90
52016;DHT22;38032;53.326;6.472;2024-03-23T04:37:51;5.10;99.90
52016;DHT22;38032;53.326;6.472;2024-03-23T04:40:18;5.10;99.90
52016;DHT22;38032;53.326;6.472;2024-03-23T04:42:44;5.10;99.90
52016;DHT22;38032;53.326;6.472;2024-03-23T04:45:10;5.10;99.90
52016;DHT22;38032;53.326;6.472;2024-03-23T04:47:37;5.10;99.90
52016;DHT22;38032;53.326;6.472;2024-03-23T04:50:04;5.10;99.90
52016;DHT22;38032;53.326;6.472;2024-03-23T04:52:30;5.10;99.90
52016;DHT22;38032;53.326;6.472;2024-03-23T04:54:56;5.10;99.90
52016;DHT22;38032;53.326;6.472;2024-03-23T04:57:23;5.20;99.90
52016;DHT22;38032;53.326;6.472;2024-03-23T04:59:48;5.20;99.90
52016;DHT22;38032;53.326;6.472;2024-03-23T05:02:15;5.20;99.90
52016;DHT22;38032;53.326;6.472;2024-03-23T05:04:41;5.20;99.90
52016;DHT22;38032;53.326;6.472;2024-03-23T05:07:07;5.20;99.90
52016;DHT22;38032;53.326;6.472;2024-03-23T05:09:33;5.10;99.90
52016;DHT22;38032;53.326;6.472;2024-03-23T05:11:59;5.10;99.90
52016;DHT22;38032;53.326;6.472;2024-03-23T05:14:26;5.00;99.90
52016;DHT22;38032;53.326;6.472;2024-03-23T05:16:53;5.00;99.90
52016;DHT22;38032;53.326;6.472;2024-03-23T05:19:18;5.00;99.90
52016;DHT22;38032;53.326;6.472;2024-03-23T05:21:44;5.00;99.90
52016;DHT22;38032;53.326;6.472;2024-03-23T05:24:11;5.00;99.90
52016;DHT22;38032;53.326;6.472;2024-03-23T05:26:38;5.00;99.90
52016;DHT22;38032;53.326;6.472;2024-03-23T05:29:03;5.00;99.90
52016;DHT22;38032;53.326;6.472;2024-03-23T05:31:31;5.00;99.90
52016;DHT22;38032;53.326;6.472;2024-03-23T05:33:57;5.00;99.90
52016;DHT22;38032;53.326;6.472;2024-03-23T05:36:23;5.00;99.90
52016;DHT22;38032;53.326;6.472;2024-03-23T05:38:50;5.00;99.90
52016;DHT22;38032;53.326;6.472;2024-03-23T05:41:16;5.00;99.90
52016;DHT22;38032;53.326;6.472;2024-03-23T05:43:42;5.00;99.90
52016;DHT22;38032;53.326;6.472;2024-03-23T05:46:08;5.00;99.90
52016;DHT22;38032;53.326;6.472;2024-03-23T05:48:34;5.00;99.90
52016;DHT22;38032;53.326;6.472;2024-03-23T05:51:00;5.00;99.90
52016;DHT22;38032;53.326;6.472;2024-03-23T05:53:26;5.00;99.90
52016;DHT22;38032;53.326;6.472;2024-03-23T05:56:01;5.00;99.90
52016;DHT22;38032;53.326;6.472;2024-03-23T05:58:29;5.10;99.90
52016;DHT22;38032;53.326;6.472;2024-03-23T06:01:14;5.10;99.90
52016;DHT22;38032;53.326;6.472;2024-03-23T06:03:39;5.20;99.90
52016;DHT22;38032;53.326;6.472;2024-03-23T06:06:05;5.30;99.90
52016;DHT22;38032;53.326;6.472;2024-03-23T06:08:36;5.40;99.90
52016;DHT22;38032;53.326;6.472;2024-03-23T06:11:02;5.50;99.90
52016;DHT22;38032;53.326;6.472;2024-03-23T06:13:28;5.60;99.90
52016;DHT22;38032;53.326;6.472;2024-03-23T06:15:56;5.80;99.90
52016;DHT22;38032;53.326;6.472;2024-03-23T06:18:22;5.90;99.90
52016;DHT22;38032;53.326;6.472;2024-03-23T06:20:48;6.00;99.90
52016;DHT22;38032;53.326;6.472;2024-03-23T06:23:14;6.10;99.90
52016;DHT22;38032;53.326;6.472;2024-03-23T06:25:41;6.20;99.90
52016;DHT22;38032;53.326;6.472;2024-03-23T06:28:07;6.30;99.90
52016;DHT22;38032;53.326;6.472;2024-03-23T06:30:33;6.30;99.90
52016;DHT22;38032;53.326;6.472;2024-03-23T06:32:58;6.30;99.90
52016;DHT22;38032;53.326;6.472;2024-03-23T06:35:24;6.30;99.90
52016;DHT22;38032;53.326;6.472;2024-03-23T06:37:50;6.40;99.90
52016;DHT22;38032;53.326;6.472;2024-03-23T06:40:16;6.60;99.90
52016;DHT22;38032;53.326;6.472;2024-03-23T06:42:42;6.90;99.90
52016;DHT22;38032;53.326;6.472;2024-03-23T06:45:08;7.20;99.90
52016;DHT22;38032;53.326;6.472;2024-03-23T06:47:34;7.50;99.90
52016;DHT22;38032;53.326;6.472;2024-03-23T06:50:01;7.80;99.90
52016;DHT22;38032;53.326;6.472;2024-03-23T06:52:28;8.30;99.90
52016;DHT22;38032;53.326;6.472;2024-03-23T06:54:54;8.90;99.90
52016;DHT22;38032;53.326;6.472;2024-03-23T06:57:19;9.50;99.90
52016;DHT22;38032;53.326;6.472;2024-03-23T06:59:45;10.00;99.90
52016;DHT22;38032;53.326;6.472;2024-03-23T07:02:11;10.00;99.90
52016;DHT22;38032;53.326;6.472;2024-03-23T07:04:37;10.10;99.90
52016;DHT22;38032;53.326;6.472;2024-03-23T07:07:05;10.50;99.90
52016;DHT22;38032;53.326;6.472;2024-03-23T07:09:31;10.90;99.90
52016;DHT22;38032;53.326;6.472;2024-03-23T07:11:57;11.20;99.90
52016;DHT22;38032;53.326;6.472;2024-03-23T07:14:24;11.10;99.90
52016;DHT22;38032;53.326;6.472;2024-03-23T07:16:50;10.80;99.90
52016;DHT22;38032;53.326;6.472;2024-03-23T07:19:17;10.40;99.90
52016;DHT22;38032;53.326;6.472;2024-03-23T07:21:44;10.10;99.90
52016;DHT22;38032;53.326;6.472;2024-03-23T07:24:10;9.80;99.90
52016;DHT22;38032;53.326;6.472;2024-03-23T07:26:36;9.60;99.90
52016;DHT22;38032;53.326;6.472;2024-03-23T07:29:04;9.50;99.90
52016;DHT22;38032;53.326;6.472;2024-03-23T07:31:30;9.70;99.90
52016;DHT22;38032;53.326;6.472;2024-03-23T07:33:56;10.30;99.90
52016;DHT22;38032;53.326;6.472;2024-03-23T07:36:22;11.30;99.90
52016;DHT22;38032;53.326;6.472;2024-03-23T07:38:48;12.10;99.90
52016;DHT22;38032;53.326;6.472;2024-03-23T07:41:19;12.50;99.90
52016;DHT22;38032;53.326;6.472;2024-03-23T07:43:47;12.60;99.90
52016;DHT22;38032;53.326;6.472;2024-03-23T07:46:14;12.40;99.90
52016;DHT22;38032;53.326;6.472;2024-03-23T07:48:40;12.50;99.90
52016;DHT22;38032;53.326;6.472;2024-03-23T07:51:22;13.00;99.90
52016;DHT22;38032;53.326;6.472;2024-03-23T07:53:48;14.20;99.90
52016;DHT22;38032;53.326;6.472;2024-03-23T07:56:15;15.40;99.90
52016;DHT22;38032;53.326;6.472;2024-03-23T07:58:46;16.50;99.90
52016;DHT22;38032;53.326;6.472;2024-03-23T08:01:14;16.50;99.90
52016;DHT22;38032;53.326;6.472;2024-03-23T08:03:43;16.20;99.90
52016;DHT22;38032;53.326;6.472;2024-03-23T08:06:10;15.50;99.90
52016;DHT22;38032;53.326;6.472;2024-03-23T08:11:03;13.70;99.90
52016;DHT22;38032;53.326;6.472;2024-03-23T08:13:29;13.20;99.90
52016;DHT22;38032;53.326;6.472;2024-03-23T08:18:29;12.90;99.90
52016;DHT22;38032;53.326;6.472;2024-03-23T08:21:00;12.60;99.90
52016;DHT22;38032;53.326;6.472;2024-03-23T08:23:28;12.60;99.90
52016;DHT22;38032;53.326;6.472;2024-03-23T08:25:58;13.00;99.90
52016;DHT22;38032;53.326;6.472;2024-03-23T08:28:25;14.30;99.90
52016;DHT22;38032;53.326;6.472;2024-03-23T08:30:51;14.90;99.90
52016;DHT22;38032;53.326;6.472;2024-03-23T08:33:17;15.60;99.90
52016;DHT22;38032;53.326;6.472;2024-03-23T08:35:51;15.80;99.90
52016;DHT22;38032;53.326;6.472;2024-03-23T08:38:17;15.50;99.90
52016;DHT22;38032;53.326;6.472;2024-03-23T08:40:43;15.10;99.90
52016;DHT22;38032;53.326;6.472;2024-03-23T08:43:09;14.80;99.90
52016;DHT22;38032;53.326;6.472;2024-03-23T08:45:35;15.10;99.90
52016;DHT22;38032;53.326;6.472;2024-03-23T08:48:01;15.90;99.90
52016;DHT22;38032;53.326;6.472;2024-03-23T08:50:27;17.10;99.50
52016;DHT22;38032;53.326;6.472;2024-03-23T08:52:52;17.80;96.20
52016;DHT22;38032;53.326;6.472;2024-03-23T08:55:18;18.20;94.80
52016;DHT22;38032;53.326;6.472;2024-03-23T08:57:44;18.80;94.30
52016;DHT22;38032;53.326;6.472;2024-03-23T09:00:10;19.20;93.10
52016;DHT22;38032;53.326;6.472;2024-03-23T09:02:37;19.30;91.70
52016;DHT22;38032;53.326;6.472;2024-03-23T09:12:26;19.10;83.60
52016;DHT22;38032;53.326;6.472;2024-03-23T09:14:52;18.50;83.10
52016;DHT22;38032;53.326;6.472;2024-03-23T09:19:45;16.60;80.40
52016;DHT22;38032;53.326;6.472;2024-03-23T09:22:11;15.60;81.70
52016;DHT22;38032;53.326;6.472;2024-03-23T09:24:38;15.30;81.60
52016;DHT22;38032;53.326;6.472;2024-03-23T09:27:04;14.80;84.90
52016;DHT22;38032;53.326;6.472;2024-03-23T09:29:30;14.70;84.60
52016;DHT22;38032;53.326;6.472;2024-03-23T09:31:55;14.60;85.10
52016;DHT22;38032;53.326;6.472;2024-03-23T09:34:21;14.40;85.80
52016;DHT22;38032;53.326;6.472;2024-03-23T09:36:51;15.00;87.90
52016;DHT22;38032;53.326;6.472;2024-03-23T09:39:17;16.20;88.90
52016;DHT22;38032;53.326;6.472;2024-03-23T09:41:43;17.90;90.10
52016;DHT22;38032;53.326;6.472;2024-03-23T09:44:09;20.00;98.50
52016;DHT22;38032;53.326;6.472;2024-03-23T09:46:35;20.60;82.40
52016;DHT22;38032;53.326;6.472;2024-03-23T09:49:02;21.80;78.90
52016;DHT22;38032;53.326;6.472;2024-03-23T09:51:31;22.90;76.30
52016;DHT22;38032;53.326;6.472;2024-03-23T09:53:57;23.70;72.40
52016;DHT22;38032;53.326;6.472;2024-03-23T09:56:23;24.30;69.00
52016;DHT22;38032;53.326;6.472;2024-03-23T09:58:49;24.90;67.20
52016;DHT22;38032;53.326;6.472;2024-03-23T10:01:15;25.40;66.80
52016;DHT22;38032;53.326;6.472;2024-03-23T10:03:43;25.90;65.70
52016;DHT22;38032;53.326;6.472;2024-03-23T10:06:10;25.70;65.00
52016;DHT22;38032;53.326;6.472;2024-03-23T10:08:36;25.00;64.10
52016;DHT22;38032;53.326;6.472;2024-03-23T10:11:13;24.00;63.40
52016;DHT22;38032;53.326;6.472;2024-03-23T10:13:42;23.00;63.90
52016;DHT22;38032;53.326;6.472;2024-03-23T10:16:09;22.80;64.30
52016;DHT22;38032;53.326;6.472;2024-03-23T10:18:39;23.20;64.60
52016;DHT22;38032;53.326;6.472;2024-03-23T10:23:32;23.70;63.50
52016;DHT22;38032;53.326;6.472;2024-03-23T10:26:23;22.80;61.10
52016;DHT22;38032;53.326;6.472;2024-03-23T10:28:59;20.60;62.90
52016;DHT22;38032;53.326;6.472;2024-03-23T10:31:29;19.20;62.80
52016;DHT22;38032;53.326;6.472;2024-03-23T10:33:54;18.70;64.10
52016;DHT22;38032;53.326;6.472;2024-03-23T10:36:21;17.00;66.80
52016;DHT22;38032;53.326;6.472;2024-03-23T10:38:50;17.00;66.90
52016;DHT22;38032;53.326;6.472;2024-03-23T10:41:16;16.10;68.20
52016;DHT22;38032;53.326;6.472;2024-03-23T10:43:45;15.30;70.00
52016;DHT22;38032;53.326;6.472;2024-03-23T10:46:11;14.60;71.90
52016;DHT22;38032;53.326;6.472;2024-03-23T10:48:37;14.30;74.90
52016;DHT22;38032;53.326;6.472;2024-03-23T10:51:07;14.10;73.50
52016;DHT22;38032;53.326;6.472;2024-03-23T10:53:34;13.70;74.60
52016;DHT22;38032;53.326;6.472;2024-03-23T10:56:00;13.30;76.10
52016;DHT22;38032;53.326;6.472;2024-03-23T10:58:31;13.10;77.40
52016;DHT22;38032;53.326;6.472;2024-03-23T11:00:57;12.90;79.00
52016;DHT22;38032;53.326;6.472;2024-03-23T11:03:35;12.90;83.50
52016;DHT22;38032;53.326;6.472;2024-03-23T11:06:03;13.10;84.80
52016;DHT22;38032;53.326;6.472;2024-03-23T11:11:19;14.40;88.70
52016;DHT22;38032;53.326;6.472;2024-03-23T11:13:48;15.20;89.30
52016;DHT22;38032;53.326;6.472;2024-03-23T11:16:16;15.80;88.40
52016;DHT22;38032;53.326;6.472;2024-03-23T11:18:43;16.30;86.20
52016;DHT22;38032;53.326;6.472;2024-03-23T11:21:10;16.40;83.00
52016;DHT22;38032;53.326;6.472;2024-03-23T11:23:36;16.20;80.10
52016;DHT22;38032;53.326;6.472;2024-03-23T11:26:07;15.80;78.80
52016;DHT22;38032;53.326;6.472;2024-03-23T11:28:33;15.40;79.40
52016;DHT22;38032;53.326;6.472;2024-03-23T11:30:59;14.90;80.30
52016;DHT22;38032;53.326;6.472;2024-03-23T11:33:25;14.50;80.50
52016;DHT22;38032;53.326;6.472;2024-03-23T11:35:50;14.30;80.70
52016;DHT22;38032;53.326;6.472;2024-03-23T11:38:17;14.00;80.90
52016;DHT22;38032;53.326;6.472;2024-03-23T11:40:46;13.90;81.40
52016;DHT22;38032;53.326;6.472;2024-03-23T11:43:14;13.70;82.30
52016;DHT22;38032;53.326;6.472;2024-03-23T11:45:45;13.90;85.00
52016;DHT22;38032;53.326;6.472;2024-03-23T11:48:14;14.00;87.00
52016;DHT22;38032;53.326;6.472;2024-03-23T11:50:42;14.10;86.90
52016;DHT22;38032;53.326;6.472;2024-03-23T11:53:14;14.10;86.20
52016;DHT22;38032;53.326;6.472;2024-03-23T11:55:46;14.10;85.50
52016;DHT22;38032;53.326;6.472;2024-03-23T11:58:13;13.90;85.00
52016;DHT22;38032;53.326;6.472;2024-03-23T12:00:39;13.70;84.60
52016;DHT22;38032;53.326;6.472;2024-03-23T12:03:06;13.60;85.40
52016;DHT22;38032;53.326;6.472;2024-03-23T12:05:33;13.50;86.80
52016;DHT22;38032;53.326;6.472;2024-03-23T12:08:18;13.40;87.30
52016;DHT22;38032;53.326;6.472;2024-03-23T12:10:48;13.10;87.60
52016;DHT22;38032;53.326;6.472;2024-03-23T12:13:16;12.80;88.10
52016;DHT22;38032;53.326;6.472;2024-03-23T12:15:44;12.60;90.40
52016;DHT22;38032;53.326;6.472;2024-03-23T12:18:10;12.50;91.70
52016;DHT22;38032;53.326;6.472;2024-03-23T12:20:37;12.60;93.50
52016;DHT22;38032;53.326;6.472;2024-03-23T12:23:06;12.90;94.80
52016;DHT22;38032;53.326;6.472;2024-03-23T12:25:32;13.20;95.20
52016;DHT22;38032;53.326;6.472;2024-03-23T12:27:59;13.30;95.30
52016;DHT22;38032;53.326;6.472;2024-03-23T12:30:25;13.40;95.80
52016;DHT22;38032;53.326;6.472;2024-03-23T12:32:51;13.60;99.20
52016;DHT22;38032;53.326;6.472;2024-03-23T12:35:17;13.60;99.90
52016;DHT22;38032;53.326;6.472;2024-03-23T12:37:43;13.80;99.10
52016;DHT22;38032;53.326;6.472;2024-03-23T12:40:10;13.90;96.40
52016;DHT22;38032;53.326;6.472;2024-03-23T12:42:36;14.00;96.00
52016;DHT22;38032;53.326;6.472;2024-03-23T12:45:01;13.90;95.50
52016;DHT22;38032;53.326;6.472;2024-03-23T12:47:30;13.90;95.90
52016;DHT22;38032;53.326;6.472;2024-03-23T12:49:56;14.00;96.30
52016;DHT22;38032;53.326;6.472;2024-03-23T12:52:22;13.90;95.70
52016;DHT22;38032;53.326;6.472;2024-03-23T12:54:49;13.90;96.00
52016;DHT22;38032;53.326;6.472;2024-03-23T12:57:15;14.00;95.50
52016;DHT22;38032;53.326;6.472;2024-03-23T12:59:41;13.90;94.30
52016;DHT22;38032;53.326;6.472;2024-03-23T13:02:07;13.70;92.60
52016;DHT22;38032;53.326;6.472;2024-03-23T13:04:33;13.30;98.00
52016;DHT22;38032;53.326;6.472;2024-03-23T13:06:59;13.00;91.50
52016;DHT22;38032;53.326;6.472;2024-03-23T13:09:24;12.90;92.40
52016;DHT22;38032;53.326;6.472;2024-03-23T13:11:50;12.80;93.40
52016;DHT22;38032;53.326;6.472;2024-03-23T13:14:16;12.60;94.00
52016;DHT22;38032;53.326;6.472;2024-03-23T13:16:42;12.40;94.20
52016;DHT22;38032;53.326;6.472;2024-03-23T13:19:08;12.10;94.70
52016;DHT22;38032;53.326;6.472;2024-03-23T13:21:34;11.80;96.10
52016;DHT22;38032;53.326;6.472;2024-03-23T13:24:00;11.80;96.90
52016;DHT22;38032;53.326;6.472;2024-03-23T13:26:25;11.60;97.20
52016;DHT22;38032;53.326;6.472;2024-03-23T13:28:51;11.60;97.40
52016;DHT22;38032;53.326;6.472;2024-03-23T13:31:17;11.40;98.10
52016;DHT22;38032;53.326;6.472;2024-03-23T13:33:43;11.40;98.90
52016;DHT22;38032;53.326;6.472;2024-03-23T13:36:09;11.40;98.90
52016;DHT22;38032;53.326;6.472;2024-03-23T13:38:35;11.30;99.90
52016;DHT22;38032;53.326;6.472;2024-03-23T13:41:01;11.20;99.90
52016;DHT22;38032;53.326;6.472;2024-03-23T13:43:29;11.20;99.90
52016;DHT22;38032;53.326;6.472;2024-03-23T13:45:58;11.10;99.90
52016;DHT22;38032;53.326;6.472;2024-03-23T13:48:26;11.20;99.90
52016;DHT22;38032;53.326;6.472;2024-03-23T13:51:03;11.40;99.90
52016;DHT22;38032;53.326;6.472;2024-03-23T13:53:30;11.60;99.90
52016;DHT22;38032;53.326;6.472;2024-03-23T13:55:56;11.70;99.90
52016;DHT22;38032;53.326;6.472;2024-03-23T13:58:22;11.80;99.90
52016;DHT22;38032;53.326;6.472;2024-03-23T14:00:51;11.90;99.90
52016;DHT22;38032;53.326;6.472;2024-03-23T14:03:17;12.00;99.90
52016;DHT22;38032;53.326;6.472;2024-03-23T14:05:44;12.10;99.90
52016;DHT22;38032;53.326;6.472;2024-03-23T14:08:11;12.00;99.90
52016;DHT22;38032;53.326;6.472;2024-03-23T14:10:40;12.00;99.90
52016;DHT22;38032;53.326;6.472;2024-03-23T14:13:07;12.00;99.90
52016;DHT22;38032;53.326;6.472;2024-03-23T14:15:33;11.90;99.90
52016;DHT22;38032;53.326;6.472;2024-03-23T14:17:59;11.80;99.90
52016;DHT22;38032;53.326;6.472;2024-03-23T14:20:25;11.80;99.90
52016;DHT22;38032;53.326;6.472;2024-03-23T14:22:52;11.90;99.90
52016;DHT22;38032;53.326;6.472;2024-03-23T14:25:18;11.90;99.90
52016;DHT22;38032;53.326;6.472;2024-03-23T14:27:45;11.90;99.90
52016;DHT22;38032;53.326;6.472;2024-03-23T14:30:11;11.90;99.90
52016;DHT22;38032;53.326;6.472;2024-03-23T14:32:38;11.90;99.90
52016;DHT22;38032;53.326;6.472;2024-03-23T14:35:04;11.70;99.90
52016;DHT22;38032;53.326;6.472;2024-03-23T14:37:30;11.70;99.90
52016;DHT22;38032;53.326;6.472;2024-03-23T14:39:57;11.80;99.90
52016;DHT22;38032;53.326;6.472;2024-03-23T14:42:23;11.90;99.90
52016;DHT22;38032;53.326;6.472;2024-03-23T14:44:50;11.90;99.90
52016;DHT22;38032;53.326;6.472;2024-03-23T14:47:17;11.90;99.90
52016;DHT22;38032;53.326;6.472;2024-03-23T14:49:44;11.80;99.90
52016;DHT22;38032;53.326;6.472;2024-03-23T14:52:17;11.80;99.90
52016;DHT22;38032;53.326;6.472;2024-03-23T14:54:44;11.80;99.90
52016;DHT22;38032;53.326;6.472;2024-03-23T14:57:10;11.70;99.90
52016;DHT22;38032;53.326;6.472;2024-03-23T14:59:36;11.70;99.90
52016;DHT22;38032;53.326;6.472;2024-03-23T15:02:05;11.60;99.90
52016;DHT22;38032;53.326;6.472;2024-03-23T15:04:31;11.60;99.90
52016;DHT22;38032;53.326;6.472;2024-03-23T15:06:57;11.50;99.90
52016;DHT22;38032;53.326;6.472;2024-03-23T15:09:23;11.50;99.90
52016;DHT22;38032;53.326;6.472;2024-03-23T15:11:49;11.40;99.90
52016;DHT22;38032;53.326;6.472;2024-03-23T15:14:15;11.30;99.90
52016;DHT22;38032;53.326;6.472;2024-03-23T15:16:40;11.30;99.90
52016;DHT22;38032;53.326;6.472;2024-03-23T15:19:08;11.30;99.90
52016;DHT22;38032;53.326;6.472;2024-03-23T15:21:34;11.30;99.90
52016;DHT22;38032;53.326;6.472;2024-03-23T15:24:00;11.30;99.90
52016;DHT22;38032;53.326;6.472;2024-03-23T15:26:26;11.30;99.90
52016;DHT22;38032;53.326;6.472;2024-03-23T15:28:53;11.30;99.90
52016;DHT22;38032;53.326;6.472;2024-03-23T15:31:25;11.30;99.90
52016;DHT22;38032;53.326;6.472;2024-03-23T15:33:51;11.30;99.90
52016;DHT22;38032;53.326;6.472;2024-03-23T15:36:17;11.10;99.90
52016;DHT22;38032;53.326;6.472;2024-03-23T15:38:44;10.90;99.90
52016;DHT22;38032;53.326;6.472;2024-03-23T15:41:10;10.70;99.90
52016;DHT22;38032;53.326;6.472;2024-03-23T15:43:36;10.70;99.90
52016;DHT22;38032;53.326;6.472;2024-03-23T15:46:04;10.70;99.90
52016;DHT22;38032;53.326;6.472;2024-03-23T15:48:32;10.70;99.90
52016;DHT22;38032;53.326;6.472;2024-03-23T15:51:00;10.80;99.90
52016;DHT22;38032;53.326;6.472;2024-03-23T15:53:26;10.70;99.90
52016;DHT22;38032;53.326;6.472;2024-03-23T15:55:56;10.70;99.90
52016;DHT22;38032;53.326;6.472;2024-03-23T15:58:23;10.60;99.90
52016;DHT22;38032;53.326;6.472;2024-03-23T16:01:03;10.60;99.90
52016;DHT22;38032;53.326;6.472;2024-03-23T16:03:30;10.50;99.90
52016;DHT22;38032;53.326;6.472;2024-03-23T16:05:59;10.50;99.90
52016;DHT22;38032;53.326;6.472;2024-03-23T16:08:26;10.50;99.90
52016;DHT22;38032;53.326;6.472;2024-03-23T16:10:53;10.50;99.90
52016;DHT22;38032;53.326;6.472;2024-03-23T16:13:19;10.50;99.90
52016;DHT22;38032;53.326;6.472;2024-03-23T16:15:46;10.40;99.90
52016;DHT22;38032;53.326;6.472;2024-03-23T16:18:12;10.40;99.90
52016;DHT22;38032;53.326;6.472;2024-03-23T16:20:38;10.30;99.90
52016;DHT22;38032;53.326;6.472;2024-03-23T16:23:04;10.20;99.90
52016;DHT22;38032;53.326;6.472;2024-03-23T16:25:31;10.20;99.90
52016;DHT22;38032;53.326;6.472;2024-03-23T16:27:57;10.10;99.90
52016;DHT22;38032;53.326;6.472;2024-03-23T16:30:23;10.00;99.90
52016;DHT22;38032;53.326;6.472;2024-03-23T16:32:49;9.90;99.90
52016;DHT22;38032;53.326;6.472;2024-03-23T16:35:15;9.90;99.90
52016;DHT22;38032;53.326;6.472;2024-03-23T16:37:41;10.00;99.90
52016;DHT22;38032;53.326;6.472;2024-03-23T16:40:08;9.90;99.90
52016;DHT22;38032;53.326;6.472;2024-03-23T16:42:35;9.90;99.90
52016;DHT22;38032;53.326;6.472;2024-03-23T16:45:02;9.80;99.90
52016;DHT22;38032;53.326;6.472;2024-03-23T16:47:28;9.80;99.90
52016;DHT22;38032;53.326;6.472;2024-03-23T16:49:54;9.80;99.90